Time;durP1;ratioP1;P1;durP2;ratioP2;P2;SDS_P1;SDS_P2;PMS_P1;PMS_P2;Temp;Humidity;BMP_temperature;BMP_pressure;BME280_temperature;BME280_humidity;BME280_pressure;Samples;Min_cycle;Max_cycle;Signal;HPM_P1;HPM_P2
2021/12/24 00:01:00;;;;;;;2.90;2.70;;;0.70;99.90;;;;;;5113505;28;20205;-69
2021/12/24 00:03:27;;;;;;;3.05;2.83;;;0.70;99.90;;;;;;5113375;28;20705;-69
2021/12/24 00:05:55;;;;;;;3.03;2.83;;;0.60;99.90;;;;;;5113532;28;20232;-69
2021/12/24 00:08:22;;;;;;;2.95;2.75;;;0.70;99.90;;;;;;5113352;28;20570;-69
2021/12/24 00:10:58;;;;;;;4.13;2.88;;;0.60;99.90;;;;;;5113685;28;20230;-69
2021/12/24 00:13:25;;;;;;;3.58;3.28;;;0.70;99.90;;;;;;5114335;28;20241;-69
2021/12/24 00:15:58;;;;;;;3.00;2.80;;;0.70;99.90;;;;;;5113291;28;20291;-68
2021/12/24 00:18:36;;;;;;;4.90;3.42;;;0.70;99.90;;;;;;5115019;28;20234;-68
2021/12/24 00:35:14;;;;;;;6.95;4.60;;;0.60;99.90;;;;;;5116782;28;20576;-69
2021/12/24 00:37:43;;;;;;;6.68;4.35;;;0.70;99.90;;;;;;5116974;27;20233;-69
2021/12/24 00:40:17;;;;;;;5.30;4.63;;;0.70;99.90;;;;;;5116715;28;20281;-69
2021/12/24 00:42:46;;;;;;;5.50;3.70;;;0.70;99.90;;;;;;5116731;28;20218;-69
2021/12/24 00:45:16;;;;;;;5.35;4.18;;;0.70;99.90;;;;;;5116608;28;20314;-69
2021/12/24 00:47:43;;;;;;;4.03;3.70;;;0.70;99.90;;;;;;5117598;22;20708;-74
2021/12/24 00:50:14;;;;;;;4.05;3.53;;;0.70;99.90;;;;;;5075504;28;20547;-74
2021/12/24 00:52:48;;;;;;;4.15;3.80;;;0.70;99.90;;;;;;5075749;28;20181;-74
2021/12/24 00:55:17;;;;;;;3.47;3.17;;;0.70;99.90;;;;;;5075422;28;20631;-74
2021/12/24 00:57:46;;;;;;;4.43;3.42;;;0.70;99.90;;;;;;5087637;28;20301;-74
2021/12/24 01:00:16;;;;;;;4.95;3.95;;;0.70;99.90;;;;;;5095743;28;20282;-74
2021/12/24 01:02:44;;;;;;;5.40;4.00;;;0.70;99.90;;;;;;5095577;28;20223;-74
2021/12/24 01:05:11;;;;;;;6.75;4.68;;;0.70;99.90;;;;;;5095294;28;20295;-74
2021/12/24 01:07:39;;;;;;;4.55;4.13;;;0.70;99.90;;;;;;5095594;28;20219;-74
2021/12/24 01:10:09;;;;;;;4.82;3.53;;;0.70;99.90;;;;;;5095335;28;20685;-74
2021/12/24 01:12:36;;;;;;;4.60;3.80;;;0.70;99.90;;;;;;5095611;28;20278;-74
2021/12/24 01:15:04;;;;;;;4.53;4.10;;;0.70;99.90;;;;;;5095320;28;20207;-74
2021/12/24 06:31:59;;;;;;;1.77;1.77;;;2.20;99.90;;;;;;5618724;22;20255;-70
2021/12/24 06:34:30;;;;;;;1.80;1.80;;;2.20;99.90;;;;;;5095383;28;20282;-70
2021/12/24 06:36:57;;;;;;;2.13;2.03;;;2.30;99.90;;;;;;5094347;28;20190;-70
2021/12/24 06:39:24;;;;;;;2.40;2.30;;;2.20;99.90;;;;;;5094770;28;20286;-70
2021/12/24 06:41:51;;;;;;;1.90;1.80;;;2.30;99.90;;;;;;5094406;28;20313;-70
2021/12/24 06:44:20;;;;;;;2.00;1.90;;;2.30;99.90;;;;;;5094873;28;20660;-68
2021/12/24 06:46:47;;;;;;;1.88;1.77;;;2.30;99.90;;;;;;5094103;28;20199;-69
2021/12/24 06:49:18;;;;;;;2.20;2.10;;;2.30;99.90;;;;;;5093703;28;20607;-69
2021/12/24 06:51:45;;;;;;;2.03;1.95;;;2.30;99.90;;;;;;5093614;28;20773;-69
2021/12/24 06:54:12;;;;;;;2.08;1.98;;;2.30;99.90;;;;;;5094019;28;20222;-68
2021/12/24 06:56:39;;;;;;;2.13;2.03;;;2.30;99.90;;;;;;5093853;28;20209;-68
2021/12/24 06:59:06;;;;;;;2.55;2.22;;;2.30;99.90;;;;;;5093510;28;20688;-68
2021/12/24 07:01:33;;;;;;;2.05;1.95;;;2.30;99.90;;;;;;5093715;28;20309;-68
2021/12/24 07:04:00;;;;;;;1.85;1.83;;;2.30;99.90;;;;;;5093336;28;20306;-68
2021/12/24 07:06:29;;;;;;;2.00;1.92;;;2.30;99.90;;;;;;5093754;28;20235;-67
2021/12/24 07:08:56;;;;;;;2.05;1.95;;;2.30;99.90;;;;;;5093761;28;20206;-67
2021/12/24 07:11:24;;;;;;;2.20;2.10;;;2.30;99.90;;;;;;5093340;28;20309;-67
2021/12/24 07:13:51;;;;;;;2.78;2.58;;;2.40;99.90;;;;;;5093091;28;20283;-67
2021/12/24 07:16:18;;;;;;;2.50;2.40;;;2.40;99.90;;;;;;5093183;28;20741;-66
2021/12/24 07:18:45;;;;;;;2.72;2.53;;;2.50;99.90;;;;;;5093630;28;20205;-66
2021/12/24 07:21:12;;;;;;;3.50;3.20;;;2.50;99.90;;;;;;5093405;28;20245;-67
2021/12/24 07:23:40;;;;;;;2.80;2.60;;;2.50;99.90;;;;;;5093061;28;20310;-67
2021/12/24 07:26:07;;;;;;;2.90;2.70;;;2.60;99.90;;;;;;5097933;28;20191;-66
2021/12/24 07:28:34;;;;;;;3.60;3.30;;;2.60;99.90;;;;;;5099493;28;20662;-66
2021/12/24 07:31:02;;;;;;;2.50;2.30;;;2.60;99.90;;;;;;5100052;28;20243;-66
2021/12/24 07:33:29;;;;;;;2.22;2.13;;;2.60;99.90;;;;;;5100593;28;20286;-66
2021/12/24 07:35:56;;;;;;;1.98;1.88;;;2.60;99.90;;;;;;5100241;28;20204;-66
2021/12/24 07:38:24;;;;;;;2.30;2.20;;;2.70;99.90;;;;;;5100675;28;20286;-67
2021/12/24 07:40:52;;;;;;;1.85;1.75;;;2.70;99.90;;;;;;5098923;28;20248;-68
2021/12/24 07:43:19;;;;;;;2.05;1.95;;;2.70;99.90;;;;;;5097066;28;20306;-67
2021/12/24 07:45:48;;;;;;;2.22;2.13;;;2.80;99.90;;;;;;5097121;28;20298;-67
2021/12/24 07:48:16;;;;;;;1.60;1.50;;;2.80;99.90;;;;;;5097150;28;20609;-67
2021/12/24 07:53:28;;;;;;;2.13;2.03;;;2.90;99.90;;;;;;5097187;28;20179;-67
2021/12/24 07:55:58;;;;;;;3.13;2.80;;;3.00;99.90;;;;;;5096964;28;20293;-67
2021/12/24 07:58:25;;;;;;;4.63;3.20;;;3.00;99.90;;;;;;5097172;28;20210;-67
2021/12/24 08:00:52;;;;;;;3.80;3.50;;;3.00;99.90;;;;;;5096553;28;20652;-67
2021/12/24 08:03:19;;;;;;;3.47;3.05;;;3.10;99.90;;;;;;5097032;28;20247;-67
2021/12/24 08:05:48;;;;;;;3.25;3.05;;;3.10;99.90;;;;;;5096854;28;20282;-67
2021/12/24 08:08:16;;;;;;;3.38;3.17;;;3.10;99.90;;;;;;5096918;28;20195;-67
2021/12/24 08:10:42;;;;;;;3.45;3.25;;;3.10;99.90;;;;;;5096487;28;20290;-66
2021/12/24 08:13:11;;;;;;;3.72;3.42;;;3.10;99.90;;;;;;5096552;28;20735;-66
2021/12/24 08:15:38;;;;;;;3.60;3.33;;;3.10;99.90;;;;;;5096771;28;20305;-66
2021/12/24 08:18:05;;;;;;;3.22;3.03;;;3.10;99.90;;;;;;5097387;28;20230;-66
2021/12/24 08:20:32;;;;;;;3.20;3.00;;;3.10;99.90;;;;;;5097746;28;20291;-66
2021/12/24 08:22:58;;;;;;;2.95;2.80;;;3.20;99.90;;;;;;5097001;28;20769;-67
2021/12/24 08:25:26;;;;;;;2.65;2.55;;;3.20;99.90;;;;;;5097395;28;20206;-68
2021/12/24 08:27:53;;;;;;;2.90;2.78;;;3.30;99.90;;;;;;5098015;28;20310;-67
2021/12/24 08:30:22;;;;;;;2.63;2.42;;;3.20;99.90;;;;;;5096630;28;20290;-67
2021/12/24 08:32:49;;;;;;;2.83;2.60;;;3.30;99.90;;;;;;5095897;28;20319;-67
2021/12/24 08:35:20;;;;;;;2.45;2.35;;;3.30;99.90;;;;;;5096310;28;20286;-67
2021/12/24 08:37:47;;;;;;;2.50;2.40;;;3.30;99.90;;;;;;5096093;28;20278;-66
2021/12/24 08:40:15;;;;;;;2.20;2.10;;;3.30;99.90;;;;;;5095467;28;20286;-66
2021/12/24 08:42:42;;;;;;;2.03;1.92;;;3.30;99.90;;;;;;5095847;28;20305;-66
2021/12/24 08:45:10;;;;;;;2.40;2.20;;;3.40;99.90;;;;;;5096537;28;20219;-66
2021/12/24 08:47:38;;;;;;;2.05;1.95;;;3.30;99.90;;;;;;5096058;28;20253;-66
2021/12/24 08:50:07;;;;;;;2.30;2.20;;;3.40;99.90;;;;;;5096003;28;20282;-66
2021/12/24 08:52:34;;;;;;;1.77;1.77;;;3.40;99.90;;;;;;5095635;28;20257;-66
2021/12/24 08:55:01;;;;;;;1.92;1.92;;;3.40;99.90;;;;;;5095971;28;20278;-66
2021/12/24 08:57:28;;;;;;;1.98;1.88;;;3.50;99.90;;;;;;5095704;28;20199;-66
2021/12/24 08:59:55;;;;;;;1.75;1.70;;;3.50;99.90;;;;;;5095763;28;20290;-66
2021/12/24 09:02:22;;;;;;;1.77;1.77;;;3.50;99.90;;;;;;5095589;28;20309;-66
2021/12/24 09:04:50;;;;;;;1.75;1.70;;;3.50;99.90;;;;;;5095594;28;20219;-66
2021/12/24 09:07:17;;;;;;;1.70;1.70;;;3.60;99.90;;;;;;5096089;28;20305;-66
2021/12/24 09:09:44;;;;;;;1.98;1.88;;;3.60;99.90;;;;;;5095285;28;20770;-66
2021/12/24 09:12:11;;;;;;;1.98;1.88;;;3.60;99.90;;;;;;5095600;28;20749;-66
2021/12/24 09:14:38;;;;;;;1.60;1.60;;;3.60;99.90;;;;;;5095623;28;20195;-66
2021/12/24 09:17:05;;;;;;;1.40;1.40;;;3.60;99.90;;;;;;5095536;28;20201;-66
2021/12/24 09:19:34;;;;;;;1.25;1.25;;;3.70;99.90;;;;;;5095507;28;20199;-65
2021/12/24 09:22:03;;;;;;;1.40;1.40;;;3.70;99.90;;;;;;5095688;28;20309;-66
2021/12/24 09:24:31;;;;;;;1.70;1.70;;;3.70;99.90;;;;;;5095029;28;20789;-66
2021/12/24 09:26:58;;;;;;;1.35;1.35;;;3.70;99.90;;;;;;5099434;28;20269;-67
2021/12/24 09:29:26;;;;;;;1.70;1.70;;;3.70;99.90;;;;;;5102043;28;20237;-66
2021/12/24 09:31:53;;;;;;;2.03;1.98;;;3.80;99.90;;;;;;5095505;28;20302;-66
2021/12/24 09:34:21;;;;;;;1.58;1.58;;;3.80;99.90;;;;;;5094934;28;20294;-67
2021/12/24 09:36:48;;;;;;;1.77;1.77;;;3.90;99.90;;;;;;5095177;28;20293;-67
2021/12/24 09:39:17;;;;;;;1.52;1.52;;;3.90;99.90;;;;;;5095259;28;20299;-67
2021/12/24 09:41:45;;;;;;;2.00;1.80;;;4.00;99.90;;;;;;5094875;28;20306;-68
2021/12/24 09:44:13;;;;;;;1.88;1.77;;;4.00;99.90;;;;;;5094725;28;20801;-67
2021/12/24 09:46:42;;;;;;;1.20;1.20;;;4.00;99.90;;;;;;5094750;28;20199;-66
2021/12/24 09:49:10;;;;;;;2.22;2.13;;;4.10;99.90;;;;;;5094838;28;20238;-66
2021/12/24 09:51:38;;;;;;;1.80;1.80;;;4.10;99.90;;;;;;5094914;28;20302;-66
2021/12/24 09:54:10;;;;;;;1.95;1.85;;;4.10;99.90;;;;;;5094544;28;20670;-66
2021/12/24 09:56:38;;;;;;;1.90;1.90;;;4.10;99.90;;;;;;5094818;28;20211;-66
2021/12/24 09:59:05;;;;;;;1.73;1.73;;;4.10;99.90;;;;;;5094337;28;20674;-66
2021/12/24 10:01:35;;;;;;;1.85;1.75;;;4.10;99.90;;;;;;5094600;28;20302;-67
2021/12/24 10:04:07;;;;;;;2.00;1.98;;;4.10;99.90;;;;;;5094611;28;20313;-67
2021/12/24 10:06:35;;;;;;;1.45;1.45;;;4.10;99.90;;;;;;5094666;28;20614;-67
2021/12/24 10:09:05;;;;;;;1.88;1.80;;;4.10;99.90;;;;;;5094299;28;20765;-67
2021/12/24 10:11:48;;;;;;;1.55;1.55;;;4.10;99.90;;;;;;5094232;28;20736;-67
2021/12/24 10:14:15;;;;;;;1.67;1.63;;;4.10;99.90;;;;;;5094548;28;20202;-68
2021/12/24 10:16:43;;;;;;;1.60;1.60;;;4.10;99.90;;;;;;5094392;28;20223;-68
2021/12/24 10:19:10;;;;;;;1.63;1.63;;;4.10;99.90;;;;;;5094274;28;20696;-68
2021/12/24 10:21:38;;;;;;;1.60;1.60;;;4.20;99.90;;;;;;5094449;28;20642;-68
2021/12/24 10:24:12;;;;;;;1.88;1.88;;;4.20;99.90;;;;;;5094294;28;20314;-68
2021/12/24 10:26:44;;;;;;;1.70;1.70;;;4.20;99.90;;;;;;5094134;28;20190;-68
2021/12/24 10:29:15;;;;;;;1.77;1.77;;;4.20;99.90;;;;;;5094332;28;20190;-69
2021/12/24 10:31:44;;;;;;;2.08;1.98;;;4.30;99.90;;;;;;5093997;28;20721;-69
2021/12/24 10:34:19;;;;;;;1.58;1.58;;;4.30;99.90;;;;;;5093959;28;20298;-68
2021/12/24 10:37:18;;;;;;;1.67;1.67;;;4.40;99.90;;;;;;5095799;28;20545;-69
2021/12/24 10:39:48;;;;;;;1.67;1.67;;;4.40;99.90;;;;;;5096075;28;20634;-68
2021/12/24 10:42:18;;;;;;;2.00;1.90;;;4.50;99.90;;;;;;5094065;28;20313;-68
2021/12/24 10:44:48;;;;;;;1.75;1.70;;;4.50;99.90;;;;;;5094599;28;20689;-70
2021/12/24 10:47:19;;;;;;;1.83;1.75;;;4.60;99.90;;;;;;5095246;28;20183;-68
2021/12/24 10:50:03;;;;;;;1.60;1.60;;;4.60;99.90;;;;;;5093924;28;20278;-67
2021/12/24 10:53:01;;;;;;;1.95;1.85;;;4.60;99.90;;;;;;5093887;28;20229;-67
2021/12/24 10:55:31;;;;;;;1.52;1.52;;;4.60;99.90;;;;;;5093828;28;20190;-67
2021/12/24 10:58:00;;;;;;;1.80;1.70;;;4.60;99.90;;;;;;5093909;28;20270;-67
2021/12/24 11:00:32;;;;;;;1.52;1.52;;;4.60;99.90;;;;;;5094282;28;20282;-67
2021/12/24 11:03:01;;;;;;;1.80;1.80;;;4.60;99.90;;;;;;5093224;28;20223;-67
2021/12/24 11:05:34;;;;;;;1.90;1.80;;;4.60;99.90;;;;;;5093770;28;20299;-67
2021/12/24 11:08:03;;;;;;;1.80;1.80;;;4.60;99.90;;;;;;5093474;28;20184;-67
2021/12/24 11:10:32;;;;;;;1.70;1.70;;;4.60;99.90;;;;;;5093656;28;20294;-66
2021/12/24 11:13:07;;;;;;;1.70;1.70;;;4.70;99.90;;;;;;5095017;28;20318;-70
2021/12/24 11:15:39;;;;;;;1.38;1.38;;;4.80;99.90;;;;;;5093958;28;20183;-69
2021/12/24 11:18:08;;;;;;;1.85;1.75;;;4.80;99.90;;;;;;5094328;28;20290;-69
2021/12/24 11:20:35;;;;;;;1.73;1.63;;;4.90;99.90;;;;;;5093761;28;20286;-69
2021/12/24 11:23:06;;;;;;;1.33;1.33;;;4.90;99.90;;;;;;5094678;28;20250;-71
2021/12/24 11:25:37;;;;;;;1.77;1.77;;;5.00;99.90;;;;;;5096232;28;20271;-71
2021/12/24 11:28:05;;;;;;;1.50;1.50;;;5.00;99.90;;;;;;5096522;28;20190;-69
2021/12/24 11:30:42;;;;;;;1.50;1.50;;;5.00;99.90;;;;;;5103682;28;20235;-68
2021/12/24 11:33:15;;;;;;;1.80;1.70;;;5.10;99.90;;;;;;5106269;28;20210;-68
2021/12/24 11:35:46;;;;;;;1.45;1.42;;;5.10;99.90;;;;;;5098717;28;20274;-68
2021/12/24 11:38:16;;;;;;;1.75;1.75;;;5.10;99.90;;;;;;5096758;28;20215;-70
2021/12/24 11:40:43;;;;;;;1.63;1.63;;;5.10;99.90;;;;;;5097363;28;20589;-69
2021/12/24 11:43:17;;;;;;;1.55;1.45;;;5.10;99.90;;;;;;5095298;28;20290;-70
2021/12/24 11:45:46;;;;;;;1.50;1.50;;;5.20;99.90;;;;;;5096610;28;20204;-67
2021/12/24 11:48:14;;;;;;;1.88;1.77;;;5.20;99.90;;;;;;5093171;28;20203;-67
2021/12/24 11:50:45;;;;;;;1.60;1.60;;;5.20;99.90;;;;;;5096631;28;20253;-68
2021/12/24 11:53:16;;;;;;;1.38;1.38;;;5.20;99.90;;;;;;5095901;28;20188;-68
2021/12/24 11:55:48;;;;;;;1.25;1.25;;;5.20;99.90;;;;;;5098034;28;20187;-69
2021/12/24 11:58:18;;;;;;;1.63;1.60;;;5.20;99.90;;;;;;5100191;28;20228;-68
2021/12/24 12:00:50;;;;;;;1.20;1.20;;;5.20;99.90;;;;;;5093768;28;20188;-69
2021/12/24 12:03:34;;;;;;;1.20;1.20;;;5.20;99.90;;;;;;5093945;28;20282;-71
2021/12/24 12:06:04;;;;;;;1.02;1.02;;;5.20;99.90;;;;;;5093271;28;20223;-70
2021/12/24 12:08:36;;;;;;;1.40;1.40;;;5.20;99.90;;;;;;5093336;28;20619;-70
2021/12/24 12:11:06;;;;;;;1.33;1.33;;;5.20;99.90;;;;;;5093072;28;20215;-70
2021/12/24 12:13:45;;;;;;;1.42;1.42;;;5.10;99.90;;;;;;5093170;28;20230;-70
2021/12/24 12:16:15;;;;;;;1.23;1.23;;;5.10;99.90;;;;;;5096265;28;20721;-70
2021/12/24 12:18:47;;;;;;;1.42;1.42;;;5.10;99.90;;;;;;5098162;28;20184;-69
2021/12/24 12:21:23;;;;;;;1.17;1.17;;;5.10;99.90;;;;;;5098278;28;20285;-69
2021/12/24 12:26:47;;;;;;;1.60;1.60;;;5.10;99.90;;;;;;5096606;28;20662;-69
2021/12/24 12:29:23;;;;;;;1.20;1.20;;;5.10;99.90;;;;;;5098398;28;20223;-69
2021/12/24 12:31:55;;;;;;;1.02;1.02;;;5.10;99.90;;;;;;5098056;28;20258;-72
2021/12/24 12:34:48;;;;;;;1.33;1.33;;;5.10;99.90;;;;;;5096946;28;20702;-74
2021/12/24 12:37:17;;;;;;;2.03;1.92;;;5.10;99.90;;;;;;5097275;28;20246;-72
2021/12/24 12:39:45;;;;;;;1.63;1.60;;;5.10;99.90;;;;;;5101423;28;20195;-69
2021/12/24 12:42:17;;;;;;;1.55;1.55;;;5.10;99.90;;;;;;5102622;28;20219;-70
2021/12/24 12:44:47;;;;;;;1.38;1.38;;;5.00;99.90;;;;;;5096469;28;20211;-69
2021/12/24 12:47:17;;;;;;;1.60;1.50;;;5.00;99.90;;;;;;5096482;28;20221;-69
2021/12/24 12:49:46;;;;;;;1.50;1.50;;;5.00;99.90;;;;;;5095932;28;20677;-69
2021/12/24 12:52:23;;;;;;;2.05;1.95;;;5.00;99.90;;;;;;5096567;28;20227;-67
2021/12/24 12:54:52;;;;;;;1.77;1.67;;;5.00;99.90;;;;;;5096046;28;20193;-67
2021/12/24 12:57:23;;;;;;;1.63;1.63;;;4.90;99.90;;;;;;5096016;28;20650;-67
2021/12/24 13:00:19;;;;;;;1.67;1.67;;;4.90;99.90;;;;;;5095969;28;20211;-66
2021/12/24 13:03:09;;;;;;;1.67;1.67;;;5.00;99.90;;;;;;5095943;28;20219;-66
2021/12/24 13:06:02;;;;;;;1.48;1.48;;;5.00;99.90;;;;;;5095797;28;20253;-67
2021/12/24 13:08:31;;;;;;;1.45;1.45;;;5.00;99.90;;;;;;5092234;28;20555;-67
2021/12/24 13:11:02;;;;;;;2.00;1.90;;;5.00;99.90;;;;;;5095170;28;20643;-67
2021/12/24 13:13:30;;;;;;;1.50;1.50;;;5.10;99.90;;;;;;5095732;28;20226;-67
2021/12/24 13:15:57;;;;;;;2.05;1.95;;;5.10;99.90;;;;;;5095513;28;20670;-67
2021/12/24 13:18:31;;;;;;;1.48;1.48;;;5.10;99.90;;;;;;5097457;28;20203;-70
2021/12/24 13:23:47;;;;;;;1.63;1.52;;;5.20;99.90;;;;;;5095895;28;20178;-69
2021/12/24 13:26:18;;;;;;;1.35;1.35;;;5.20;99.90;;;;;;5095091;28;20592;-69
2021/12/24 13:28:56;;;;;;;1.58;1.55;;;5.20;99.90;;;;;;5095866;28;20199;-69
2021/12/24 13:31:23;;;;;;;1.48;1.48;;;5.20;99.90;;;;;;5095670;28;20306;-69
2021/12/24 13:33:52;;;;;;;1.17;1.17;;;5.20;99.90;;;;;;5095232;28;20293;-69
2021/12/24 13:36:23;;;;;;;1.33;1.33;;;5.30;99.90;;;;;;5095635;28;20302;-69
2021/12/24 13:38:50;;;;;;;1.63;1.63;;;5.30;99.90;;;;;;5095486;28;20770;-70
2021/12/24 13:41:17;;;;;;;1.52;1.52;;;5.30;99.90;;;;;;5095094;28;20725;-69
2021/12/24 13:43:44;;;;;;;1.70;1.70;;;5.20;99.90;;;;;;5095424;28;20190;-69
2021/12/24 13:46:13;;;;;;;1.30;1.30;;;5.20;99.90;;;;;;5095075;28;20265;-69
2021/12/24 13:48:56;;;;;;;1.55;1.55;;;5.20;99.90;;;;;;5095048;28;20206;-70
2021/12/24 13:56:53;;;;;;;1.20;1.20;;;5.20;99.90;;;;;;5095446;28;20535;-70
2021/12/24 13:59:24;;;;;;;1.25;1.25;;;5.20;99.90;;;;;;5094983;28;20617;-70
2021/12/24 14:01:51;;;;;;;1.25;1.25;;;5.10;99.90;;;;;;5094982;28;20305;-69
2021/12/24 14:04:20;;;;;;;1.40;1.40;;;5.10;99.90;;;;;;5095244;28;20191;-70
2021/12/24 14:06:51;;;;;;;0.90;0.90;;;5.10;99.90;;;;;;5095083;28;20729;-68
2021/12/24 14:09:20;;;;;;;1.13;1.13;;;5.10;99.90;;;;;;5094935;28;20650;-70
2021/12/24 14:11:49;;;;;;;1.50;1.50;;;5.00;99.90;;;;;;5095416;28;20219;-70
2021/12/24 14:14:21;;;;;;;1.20;1.20;;;5.10;99.90;;;;;;5095487;28;20203;-70
2021/12/24 14:17:06;;;;;;;1.10;1.10;;;5.10;99.90;;;;;;5095349;28;20204;-69
2021/12/24 14:19:48;;;;;;;1.20;1.20;;;5.10;99.90;;;;;;5095491;28;20187;-70
2021/12/24 14:22:17;;;;;;;1.20;1.20;;;5.00;99.90;;;;;;5095765;28;20313;-69
2021/12/24 14:24:52;;;;;;;1.05;1.05;;;5.00;99.90;;;;;;5095035;28;20234;-70
2021/12/24 14:27:21;;;;;;;1.38;1.38;;;5.00;99.90;;;;;;5094533;28;20610;-69
2021/12/24 14:29:56;;;;;;;1.27;1.27;;;4.90;99.90;;;;;;5095602;28;20289;-70
2021/12/24 14:32:30;;;;;;;1.25;1.25;;;4.80;99.90;;;;;;5094393;28;20701;-68
2021/12/24 14:34:59;;;;;;;1.00;1.00;;;4.90;99.90;;;;;;5094203;28;20202;-68
2021/12/24 14:37:32;;;;;;;0.93;0.93;;;4.80;99.90;;;;;;5093438;28;20207;-67
2021/12/24 14:40:01;;;;;;;0.90;0.90;;;4.80;99.90;;;;;;5093763;28;20218;-68
2021/12/24 14:42:31;;;;;;;1.10;1.10;;;4.80;99.90;;;;;;5094059;28;20326;-68
2021/12/24 14:45:15;;;;;;;1.00;1.00;;;4.80;99.90;;;;;;5094223;28;20237;-67
2021/12/24 14:47:42;;;;;;;1.00;1.00;;;4.80;99.90;;;;;;5094384;28;20191;-67
2021/12/24 14:50:12;;;;;;;0.90;0.90;;;4.80;99.90;;;;;;5094075;28;20263;-66
2021/12/24 14:52:41;;;;;;;0.90;0.90;;;4.80;99.90;;;;;;5094489;28;20262;-67
2021/12/24 14:55:22;;;;;;;0.90;0.90;;;4.80;99.90;;;;;;5094122;28;20286;-67
2021/12/24 14:57:59;;;;;;;0.90;0.90;;;4.70;99.90;;;;;;5093883;28;20180;-68
2021/12/24 15:00:30;;;;;;;0.90;0.90;;;4.70;99.90;;;;;;5093743;28;20280;-68
2021/12/24 15:02:59;;;;;;;0.90;0.90;;;4.70;99.90;;;;;;5093591;28;20215;-68
2021/12/24 15:05:30;;;;;;;1.00;1.00;;;4.70;99.90;;;;;;5093505;28;20755;-68
2021/12/24 15:07:59;;;;;;;0.82;0.82;;;4.60;99.90;;;;;;5093739;28;20369;-69
2021/12/24 15:10:27;;;;;;;1.15;1.15;;;4.60;99.90;;;;;;5093754;28;20262;-69
2021/12/24 15:13:03;;;;;;;0.98;0.98;;;4.60;99.90;;;;;;5093597;28;20250;-69
2021/12/24 15:15:30;;;;;;;1.10;1.10;;;4.60;99.90;;;;;;5093696;28;20205;-69
2021/12/24 15:17:57;;;;;;;1.05;1.05;;;4.50;99.90;;;;;;5093917;28;20290;-68
2021/12/24 15:20:27;;;;;;;1.17;1.17;;;4.50;99.90;;;;;;5093799;28;20203;-67
2021/12/24 15:22:54;;;;;;;1.10;1.10;;;4.50;99.90;;;;;;5093532;28;20226;-67
2021/12/24 15:25:23;;;;;;;1.20;1.20;;;4.50;99.90;;;;;;5093074;28;20728;-67
2021/12/24 15:27:53;;;;;;;1.23;1.23;;;4.50;99.90;;;;;;5094422;28;20616;-68
2021/12/24 15:30:20;;;;;;;1.30;1.30;;;4.40;99.90;;;;;;5093872;28;20618;-68
2021/12/24 15:32:47;;;;;;;0.90;0.90;;;4.40;99.90;;;;;;5093284;28;20259;-68
2021/12/24 15:35:14;;;;;;;1.27;1.27;;;4.40;99.90;;;;;;5093424;28;20206;-67
2021/12/24 15:37:41;;;;;;;1.08;1.08;;;4.40;99.90;;;;;;5093532;28;20226;-67
2021/12/24 15:40:09;;;;;;;1.27;1.23;;;4.40;99.90;;;;;;5094068;28;20624;-67
2021/12/24 15:42:38;;;;;;;1.10;1.10;;;4.40;99.90;;;;;;5093286;28;20226;-68
2021/12/24 15:45:09;;;;;;;1.40;1.40;;;4.40;99.90;;;;;;5093396;28;20288;-68
2021/12/24 15:47:36;;;;;;;1.30;1.30;;;4.40;99.90;;;;;;5093334;28;20625;-67
2021/12/24 15:50:06;;;;;;;1.15;1.15;;;4.30;99.90;;;;;;5096449;28;20195;-68
2021/12/24 15:52:33;;;;;;;1.35;1.35;;;4.40;99.90;;;;;;5096990;28;20624;-68
2021/12/24 15:55:00;;;;;;;1.20;1.20;;;4.40;99.90;;;;;;5097325;28;20352;-67
2021/12/24 15:57:27;;;;;;;1.20;1.20;;;4.30;99.90;;;;;;5097753;28;20199;-69
2021/12/24 15:59:55;;;;;;;1.50;1.50;;;4.30;99.90;;;;;;5097177;28;20207;-67
2021/12/24 16:02:22;;;;;;;1.52;1.52;;;4.30;99.90;;;;;;5097277;28;20251;-68
2021/12/24 16:04:49;;;;;;;1.52;1.52;;;4.20;99.90;;;;;;5096988;28;20238;-68
2021/12/24 16:07:16;;;;;;;1.67;1.67;;;4.20;99.90;;;;;;5096901;28;20302;-69
2021/12/24 16:09:43;;;;;;;2.17;2.08;;;4.20;99.90;;;;;;5096690;28;20618;-68
2021/12/24 16:12:11;;;;;;;2.00;1.98;;;4.20;99.90;;;;;;5096799;28;20313;-67
2021/12/24 16:14:39;;;;;;;1.80;1.70;;;4.20;99.90;;;;;;5097041;28;20199;-67
2021/12/24 16:17:07;;;;;;;1.92;1.90;;;4.20;99.90;;;;;;5097141;28;20199;-67
2021/12/24 16:19:34;;;;;;;1.95;1.92;;;4.20;99.90;;;;;;5097226;28;20294;-67
2021/12/24 16:22:03;;;;;;;1.80;1.80;;;4.20;99.90;;;;;;5097284;28;20250;-67
2021/12/24 16:24:29;;;;;;;1.77;1.77;;;4.20;99.90;;;;;;5096917;28;20290;-67
2021/12/24 16:26:56;;;;;;;1.75;1.75;;;4.20;99.90;;;;;;5096704;28;20306;-67
2021/12/24 16:29:45;;;;;;;1.58;1.58;;;4.20;99.90;;;;;;5096762;28;20286;-67
2021/12/24 16:32:14;;;;;;;1.40;1.40;;;4.20;99.90;;;;;;5096379;28;20219;-68
2021/12/24 16:34:43;;;;;;;1.60;1.60;;;4.10;99.90;;;;;;5096622;28;20190;-68
2021/12/24 16:37:11;;;;;;;1.73;1.70;;;4.20;99.90;;;;;;5096489;28;20210;-68
2021/12/24 16:39:39;;;;;;;1.75;1.75;;;4.20;99.90;;;;;;5096158;28;20686;-68
2021/12/24 16:42:06;;;;;;;1.60;1.60;;;4.10;99.90;;;;;;5096418;28;20315;-67
2021/12/24 16:44:33;;;;;;;1.38;1.38;;;4.20;99.90;;;;;;5096152;28;20639;-68
2021/12/24 16:47:00;;;;;;;1.52;1.50;;;4.10;99.90;;;;;;5095860;28;20229;-68
2021/12/24 16:49:29;;;;;;;1.45;1.45;;;4.10;99.90;;;;;;5096012;28;20290;-67
2021/12/24 16:51:56;;;;;;;1.42;1.42;;;4.20;99.90;;;;;;5096101;28;20310;-67
2021/12/24 16:54:23;;;;;;;1.58;1.58;;;4.10;99.90;;;;;;5096408;28;20211;-67
2021/12/24 16:56:50;;;;;;;1.98;1.88;;;4.10;99.90;;;;;;5096157;28;20195;-67
2021/12/24 16:59:19;;;;;;;1.70;1.70;;;4.10;99.90;;;;;;5095697;28;20557;-67
2021/12/24 17:01:47;;;;;;;1.95;1.85;;;4.10;99.90;;;;;;5095173;28;20227;-68
2021/12/24 17:04:14;;;;;;;1.83;1.83;;;4.10;99.90;;;;;;5095933;28;20290;-67
2021/12/24 17:06:43;;;;;;;2.17;2.08;;;4.10;99.90;;;;;;5095580;28;20757;-67
2021/12/24 17:09:10;;;;;;;2.22;2.13;;;4.10;99.90;;;;;;5095849;28;20202;-67
2021/12/24 17:11:37;;;;;;;2.03;1.92;;;4.10;99.90;;;;;;5095837;28;20630;-67
2021/12/24 17:14:05;;;;;;;2.40;2.05;;;4.10;99.90;;;;;;5096232;28;20286;-67
2021/12/24 17:16:32;;;;;;;2.30;2.20;;;4.10;99.90;;;;;;5095899;28;20231;-67
2021/12/24 17:18:59;;;;;;;2.40;2.30;;;4.10;99.90;;;;;;5096058;28;20296;-67
2021/12/24 17:21:26;;;;;;;2.38;2.22;;;4.10;99.90;;;;;;5095759;28;20254;-67
2021/12/24 17:23:56;;;;;;;1.92;1.83;;;4.10;99.90;;;;;;5095648;28;20715;-66
2021/12/24 17:26:22;;;;;;;2.13;2.03;;;4.10;99.90;;;;;;5095763;28;20261;-67
2021/12/24 17:28:49;;;;;;;1.90;1.80;;;4.10;99.90;;;;;;5095635;28;20206;-67
2021/12/24 17:31:18;;;;;;;2.10;2.00;;;4.10;99.90;;;;;;5095283;28;20709;-67
2021/12/24 17:33:45;;;;;;;1.95;1.85;;;4.10;99.90;;;;;;5094943;28;20271;-67
2021/12/24 17:36:13;;;;;;;1.83;1.80;;;4.10;99.90;;;;;;5095285;28;20293;-67
2021/12/24 17:38:40;;;;;;;2.50;2.05;;;4.10;99.90;;;;;;5095123;28;20199;-67
2021/12/24 17:41:09;;;;;;;2.00;1.90;;;4.10;99.90;;;;;;5095020;28;20219;-67
2021/12/24 17:43:36;;;;;;;2.17;2.08;;;4.00;99.90;;;;;;5095127;28;20282;-67
2021/12/24 17:46:03;;;;;;;1.80;1.80;;;4.10;99.90;;;;;;5095010;28;20310;-67
2021/12/24 17:48:30;;;;;;;1.98;1.88;;;4.10;99.90;;;;;;5094701;28;20290;-67
2021/12/24 17:50:57;;;;;;;2.13;2.03;;;4.20;99.90;;;;;;5094630;28;20248;-67
2021/12/24 17:53:24;;;;;;;2.03;1.92;;;4.20;99.90;;;;;;5094631;28;20242;-67
2021/12/24 17:55:51;;;;;;;2.10;2.00;;;4.20;99.90;;;;;;5094601;28;20234;-67
2021/12/24 17:58:19;;;;;;;2.53;2.33;;;4.20;99.90;;;;;;5094826;28;20286;-67
2021/12/24 18:00:46;;;;;;;2.45;2.25;;;4.20;99.90;;;;;;5094821;28;20199;-67
2021/12/24 18:03:13;;;;;;;2.00;1.90;;;4.20;99.90;;;;;;5094327;28;20195;-67
2021/12/24 18:05:41;;;;;;;2.47;2.38;;;4.20;99.90;;;;;;5094350;28;20290;-67
2021/12/24 18:08:08;;;;;;;2.60;2.40;;;4.20;99.90;;;;;;5094493;28;20223;-67
2021/12/24 18:10:35;;;;;;;2.65;2.45;;;4.20;99.90;;;;;;5094578;28;20285;-67
2021/12/24 18:13:02;;;;;;;2.97;2.63;;;4.20;99.90;;;;;;5093122;28;20636;-67
2021/12/24 18:15:30;;;;;;;2.38;2.28;;;4.20;99.90;;;;;;5094577;28;20294;-67
2021/12/24 18:17:58;;;;;;;2.20;2.10;;;4.20;99.90;;;;;;5094420;28;20226;-67
2021/12/24 18:20:25;;;;;;;2.35;2.25;;;4.20;99.90;;;;;;5094403;28;20199;-67
2021/12/24 18:22:53;;;;;;;2.70;2.53;;;4.20;99.90;;;;;;5094361;28;20352;-66
2021/12/24 18:25:21;;;;;;;2.30;2.20;;;4.20;99.90;;;;;;5094085;28;20206;-66
2021/12/24 18:27:49;;;;;;;2.28;2.17;;;4.20;99.90;;;;;;5094285;28;20211;-67
2021/12/24 18:30:17;;;;;;;2.20;2.10;;;4.20;99.90;;;;;;5095099;28;20199;-67
2021/12/24 18:32:45;;;;;;;2.78;2.58;;;4.10;99.90;;;;;;5093984;28;20337;-67
2021/12/24 18:35:12;;;;;;;2.53;2.33;;;4.20;99.90;;;;;;5094366;28;20234;-67
2021/12/24 18:40:24;;;;;;;2.20;2.10;;;4.10;99.90;;;;;;5083695;28;20656;-67
2021/12/24 18:42:51;;;;;;;2.47;2.28;;;4.20;99.90;;;;;;5093997;28;20310;-67
2021/12/24 18:45:19;;;;;;;2.28;2.17;;;4.20;99.90;;;;;;5093963;28;20201;-67
2021/12/24 18:47:48;;;;;;;2.38;2.28;;;4.20;99.90;;;;;;5094252;28;20211;-67
2021/12/24 18:50:16;;;;;;;2.08;1.98;;;4.20;99.90;;;;;;5093583;28;20674;-67
2021/12/24 18:52:43;;;;;;;2.08;1.98;;;4.20;99.90;;;;;;5093532;28;20324;-68
2021/12/24 18:55:10;;;;;;;2.03;1.92;;;4.20;99.90;;;;;;5093434;28;20203;-67